Pagrindinis puslapis
METAR-TAF:

METAR-TAF

Oro uostai :

Tawau, Malaizija

platuma: 04-16N, ilguma: 117-53E, Aukštis: 18 m

Dabartinis oras

Ataskaita buvo paskelbta 46 minutes, ne 18:00 UTC
Vėjas 3 kt iš Šiaurės Vakarų, svyruoja nuo Vakarų/Šiaurės Vakarų ir Šiaurės
Temperatūra 25°C
Drėgmė 89%
Slėgis 1007 hPa
Matomumas 10 km arba daugiau
Mažai debesys ne aukštis 1700 ft

METAR: WBKW 251800Z 32003KT 290V010 9999 FEW017 25/23 Q1007

Laikas: 02:46 (18:46 UTC)

Prognozė

Ataskaita buvo paskelbta 1 valandą ir 46 minutes, ne 17:00 UTC
Prognozė galioja nuo 25 metu 18 UTC su 26 metu 18 UTC
Vėjas 3 kt nuo kintamojo kryptimis
Matomumas 10 km arba daugiau
Mažai debesys ne aukštis 1700 ft
Laikinai
nuo 26 metu 06 UTC su 26 metu 10 UTC
Vėjas 8 kt iš Pietų/Pietryčių
Matomumas: 5000 m
Mažai debesys ne aukštis 1500 ft, Liūtiniai kamuoliniai debesys.
Išsisklaidę debesys ne aukštis 3000 ft
perkūnija, lietus

TAF: WBKW 251700Z 2518/2618 VRB03KT 9999 FEW017 TEMPO 2606/2610 15008KT 5000 TSRA FEW015CB SCT030

Orai ataskaitas ir orų prognozės (METAR, TAF).

turimą stotys yra geltonos ir raudonos taškus žemėlapyje.

Perkelti pele per norėdami pamatyti stoties vardą.

Tada spustelėkite, norėdami matyti oro stebėjimo ir prognozės.

Norėdami pakeisti žemėlapį: spustelėkite ant žalios mygtukų su juodo kryžiaus žemyn,; žalią mygtuką su brūkšneliu, jei norite nutolinti; arba žalių rodyklių gretimoms žemėlapius.


METAR-TAF: